sensor_id;sensor_type;location;lat;lon;timestamp;temperature;humidity
6379;DHT22;3222;48.858;10.128;2022-12-18T00:01:18;-6.00;99.90
6379;DHT22;3222;48.858;10.128;2022-12-18T00:03:44;-6.00;99.90
6379;DHT22;3222;48.858;10.128;2022-12-18T00:06:09;-6.10;99.90
6379;DHT22;3222;48.858;10.128;2022-12-18T00:08:35;-6.10;99.90
6379;DHT22;3222;48.858;10.128;2022-12-18T00:11:08;-6.20;99.90
6379;DHT22;3222;48.858;10.128;2022-12-18T00:13:35;-6.20;99.90
6379;DHT22;3222;48.858;10.128;2022-12-18T00:16:12;-6.20;99.90
6379;DHT22;3222;48.858;10.128;2022-12-18T00:18:38;-6.10;99.90
6379;DHT22;3222;48.858;10.128;2022-12-18T00:21:07;-6.20;99.90
6379;DHT22;3222;48.858;10.128;2022-12-18T00:23:34;-6.20;99.90
6379;DHT22;3222;48.858;10.128;2022-12-18T00:26:01;-6.20;99.90
6379;DHT22;3222;48.858;10.128;2022-12-18T00:28:27;-6.20;99.90
6379;DHT22;3222;48.858;10.128;2022-12-18T00:31:06;-6.30;99.90
6379;DHT22;3222;48.858;10.128;2022-12-18T00:33:33;-6.30;99.90
6379;DHT22;3222;48.858;10.128;2022-12-18T00:36:15;-6.30;99.90
6379;DHT22;3222;48.858;10.128;2022-12-18T00:38:42;-6.40;99.90
6379;DHT22;3222;48.858;10.128;2022-12-18T00:41:09;-6.30;99.90
6379;DHT22;3222;48.858;10.128;2022-12-18T00:43:38;-6.30;99.90
6379;DHT22;3222;48.858;10.128;2022-12-18T00:46:04;-6.40;99.90
6379;DHT22;3222;48.858;10.128;2022-12-18T00:48:31;-6.40;99.90
6379;DHT22;3222;48.858;10.128;2022-12-18T00:50:57;-6.40;99.90
6379;DHT22;3222;48.858;10.128;2022-12-18T00:53:23;-6.40;99.90
6379;DHT22;3222;48.858;10.128;2022-12-18T00:55:48;-6.30;99.90
6379;DHT22;3222;48.858;10.128;2022-12-18T00:58:16;-6.40;99.90
6379;DHT22;3222;48.858;10.128;2022-12-18T01:00:42;-6.40;99.90
6379;DHT22;3222;48.858;10.128;2022-12-18T01:03:12;-6.40;99.90
6379;DHT22;3222;48.858;10.128;2022-12-18T01:05:40;-6.40;99.90
6379;DHT22;3222;48.858;10.128;2022-12-18T01:08:06;-6.50;99.90
6379;DHT22;3222;48.858;10.128;2022-12-18T01:10:32;-6.40;99.90
6379;DHT22;3222;48.858;10.128;2022-12-18T01:12:57;-6.50;99.90
6379;DHT22;3222;48.858;10.128;2022-12-18T01:15:23;-6.50;99.90
6379;DHT22;3222;48.858;10.128;2022-12-18T01:17:49;-6.60;99.90
6379;DHT22;3222;48.858;10.128;2022-12-18T01:20:17;-6.60;99.90
6379;DHT22;3222;48.858;10.128;2022-12-18T01:22:42;-6.60;99.90
6379;DHT22;3222;48.858;10.128;2022-12-18T01:25:08;-6.60;99.90
6379;DHT22;3222;48.858;10.128;2022-12-18T01:27:34;-6.60;99.90
6379;DHT22;3222;48.858;10.128;2022-12-18T01:30:03;-6.60;99.90
6379;DHT22;3222;48.858;10.128;2022-12-18T01:32:30;-6.60;99.90
6379;DHT22;3222;48.858;10.128;2022-12-18T01:34:57;-6.60;99.90
6379;DHT22;3222;48.858;10.128;2022-12-18T01:37:22;-6.60;99.90
6379;DHT22;3222;48.858;10.128;2022-12-18T01:39:48;-6.70;99.90
6379;DHT22;3222;48.858;10.128;2022-12-18T01:42:15;-6.70;99.90
6379;DHT22;3222;48.858;10.128;2022-12-18T01:52:45;-6.90;99.90
6379;DHT22;3222;48.858;10.128;2022-12-18T01:55:13;-6.90;99.90
6379;DHT22;3222;48.858;10.128;2022-12-18T01:57:40;-6.90;99.90
6379;DHT22;3222;48.858;10.128;2022-12-18T02:00:17;-6.80;99.90
6379;DHT22;3222;48.858;10.128;2022-12-18T02:02:44;-6.90;99.90
6379;DHT22;3222;48.858;10.128;2022-12-18T02:05:15;-6.80;99.90
6379;DHT22;3222;48.858;10.128;2022-12-18T02:08:20;-6.80;99.90
6379;DHT22;3222;48.858;10.128;2022-12-18T02:13:46;-6.80;99.90
6379;DHT22;3222;48.858;10.128;2022-12-18T02:16:17;-6.90;99.90
6379;DHT22;3222;48.858;10.128;2022-12-18T02:18:51;-6.90;99.90
6379;DHT22;3222;48.858;10.128;2022-12-18T02:21:40;-7.00;99.90
6379;DHT22;3222;48.858;10.128;2022-12-18T02:26:47;-7.10;99.90
6379;DHT22;3222;48.858;10.128;2022-12-18T02:29:21;-7.10;99.90
6379;DHT22;3222;48.858;10.128;2022-12-18T02:31:59;-7.10;99.90
6379;DHT22;3222;48.858;10.128;2022-12-18T02:34:37;-7.20;99.90
6379;DHT22;3222;48.858;10.128;2022-12-18T02:37:07;-7.20;99.90
6379;DHT22;3222;48.858;10.128;2022-12-18T02:39:38;-7.20;99.90
6379;DHT22;3222;48.858;10.128;2022-12-18T02:42:05;-7.30;99.90
6379;DHT22;3222;48.858;10.128;2022-12-18T02:44:41;-7.30;99.90
6379;DHT22;3222;48.858;10.128;2022-12-18T02:47:10;-7.30;99.90
6379;DHT22;3222;48.858;10.128;2022-12-18T02:52:42;-7.20;99.90
6379;DHT22;3222;48.858;10.128;2022-12-18T02:55:19;-7.20;99.90
6379;DHT22;3222;48.858;10.128;2022-12-18T03:00:43;-7.10;99.90
6379;DHT22;3222;48.858;10.128;2022-12-18T03:03:26;-7.10;99.90
6379;DHT22;3222;48.858;10.128;2022-12-18T03:05:55;-7.20;99.90
6379;DHT22;3222;48.858;10.128;2022-12-18T03:08:24;-7.20;99.90
6379;DHT22;3222;48.858;10.128;2022-12-18T03:11:00;-7.20;99.90
6379;DHT22;3222;48.858;10.128;2022-12-18T03:13:53;-7.30;99.90
6379;DHT22;3222;48.858;10.128;2022-12-18T03:16:24;-7.30;99.90
6379;DHT22;3222;48.858;10.128;2022-12-18T03:19:01;-7.40;99.90
6379;DHT22;3222;48.858;10.128;2022-12-18T03:21:42;-7.40;99.90
6379;DHT22;3222;48.858;10.128;2022-12-18T03:24:09;-7.40;99.90
6379;DHT22;3222;48.858;10.128;2022-12-18T03:26:40;-7.40;99.90
6379;DHT22;3222;48.858;10.128;2022-12-18T03:29:12;-7.50;99.90
6379;DHT22;3222;48.858;10.128;2022-12-18T03:31:41;-7.40;99.90
6379;DHT22;3222;48.858;10.128;2022-12-18T03:34:15;-7.30;99.90
6379;DHT22;3222;48.858;10.128;2022-12-18T03:36:45;-7.40;99.90
6379;DHT22;3222;48.858;10.128;2022-12-18T03:39:12;-7.40;99.90
6379;DHT22;3222;48.858;10.128;2022-12-18T03:41:44;-7.40;99.90
6379;DHT22;3222;48.858;10.128;2022-12-18T03:47:27;-7.40;99.90
6379;DHT22;3222;48.858;10.128;2022-12-18T03:53:00;-7.60;99.90
6379;DHT22;3222;48.858;10.128;2022-12-18T03:55:32;-7.60;99.90
6379;DHT22;3222;48.858;10.128;2022-12-18T03:58:03;-7.60;99.90
6379;DHT22;3222;48.858;10.128;2022-12-18T04:00:42;-7.60;99.90
6379;DHT22;3222;48.858;10.128;2022-12-18T04:03:10;-7.60;99.90
6379;DHT22;3222;48.858;10.128;2022-12-18T04:05:43;-7.50;99.90
6379;DHT22;3222;48.858;10.128;2022-12-18T04:08:09;-7.40;99.90
6379;DHT22;3222;48.858;10.128;2022-12-18T04:10:38;-7.40;99.90
6379;DHT22;3222;48.858;10.128;2022-12-18T04:13:04;-7.40;99.90
6379;DHT22;3222;48.858;10.128;2022-12-18T04:15:33;-7.40;99.90
6379;DHT22;3222;48.858;10.128;2022-12-18T04:18:00;-7.40;99.90
6379;DHT22;3222;48.858;10.128;2022-12-18T04:20:31;-7.40;99.90
6379;DHT22;3222;48.858;10.128;2022-12-18T04:22:57;-7.40;99.90
6379;DHT22;3222;48.858;10.128;2022-12-18T04:25:23;-7.50;99.90
6379;DHT22;3222;48.858;10.128;2022-12-18T04:27:59;-7.50;99.90
6379;DHT22;3222;48.858;10.128;2022-12-18T04:30:25;-7.60;99.90
6379;DHT22;3222;48.858;10.128;2022-12-18T04:32:51;-7.50;99.90
6379;DHT22;3222;48.858;10.128;2022-12-18T04:35:16;-7.50;99.90
6379;DHT22;3222;48.858;10.128;2022-12-18T04:37:43;-7.50;99.90
6379;DHT22;3222;48.858;10.128;2022-12-18T04:40:10;-7.60;99.90
6379;DHT22;3222;48.858;10.128;2022-12-18T04:42:40;-7.60;99.90
6379;DHT22;3222;48.858;10.128;2022-12-18T04:45:06;-7.60;99.90
6379;DHT22;3222;48.858;10.128;2022-12-18T04:47:32;-7.60;99.90
6379;DHT22;3222;48.858;10.128;2022-12-18T04:49:58;-7.60;99.90
6379;DHT22;3222;48.858;10.128;2022-12-18T04:52:24;-7.70;99.90
6379;DHT22;3222;48.858;10.128;2022-12-18T04:54:49;-7.60;99.90
6379;DHT22;3222;48.858;10.128;2022-12-18T04:57:16;-7.60;99.90
6379;DHT22;3222;48.858;10.128;2022-12-18T04:59:43;-7.70;99.90
6379;DHT22;3222;48.858;10.128;2022-12-18T05:02:09;-7.70;99.90
6379;DHT22;3222;48.858;10.128;2022-12-18T05:04:35;-7.70;99.90
6379;DHT22;3222;48.858;10.128;2022-12-18T05:07:00;-7.70;99.90
6379;DHT22;3222;48.858;10.128;2022-12-18T05:09:26;-7.70;99.90
6379;DHT22;3222;48.858;10.128;2022-12-18T05:11:52;-7.80;99.90
6379;DHT22;3222;48.858;10.128;2022-12-18T05:14:17;-7.80;99.90
6379;DHT22;3222;48.858;10.128;2022-12-18T05:16:43;-7.80;99.90
6379;DHT22;3222;48.858;10.128;2022-12-18T05:19:09;-7.70;99.90
6379;DHT22;3222;48.858;10.128;2022-12-18T05:21:34;-7.80;99.90
6379;DHT22;3222;48.858;10.128;2022-12-18T05:24:00;-7.70;99.90
6379;DHT22;3222;48.858;10.128;2022-12-18T05:26:25;-7.70;99.90
6379;DHT22;3222;48.858;10.128;2022-12-18T05:28:51;-7.70;99.90
6379;DHT22;3222;48.858;10.128;2022-12-18T05:31:16;-7.70;99.90
6379;DHT22;3222;48.858;10.128;2022-12-18T05:33:42;-7.70;99.90
6379;DHT22;3222;48.858;10.128;2022-12-18T05:36:09;-7.60;99.90
6379;DHT22;3222;48.858;10.128;2022-12-18T05:38:36;-7.60;99.90
6379;DHT22;3222;48.858;10.128;2022-12-18T05:41:02;-7.60;99.90
6379;DHT22;3222;48.858;10.128;2022-12-18T05:43:29;-7.60;99.90
6379;DHT22;3222;48.858;10.128;2022-12-18T05:45:55;-7.50;99.90
6379;DHT22;3222;48.858;10.128;2022-12-18T05:48:21;-7.50;99.90
6379;DHT22;3222;48.858;10.128;2022-12-18T05:50:48;-7.50;99.90
6379;DHT22;3222;48.858;10.128;2022-12-18T05:53:16;-7.50;99.90
6379;DHT22;3222;48.858;10.128;2022-12-18T05:55:43;-7.60;99.90
6379;DHT22;3222;48.858;10.128;2022-12-18T05:58:10;-7.70;99.90
6379;DHT22;3222;48.858;10.128;2022-12-18T06:00:39;-7.80;99.90
6379;DHT22;3222;48.858;10.128;2022-12-18T06:03:09;-7.80;99.90
6379;DHT22;3222;48.858;10.128;2022-12-18T06:05:39;-7.80;99.90
6379;DHT22;3222;48.858;10.128;2022-12-18T06:08:05;-7.80;99.90
6379;DHT22;3222;48.858;10.128;2022-12-18T06:10:31;-7.90;99.90
6379;DHT22;3222;48.858;10.128;2022-12-18T06:12:57;-7.80;99.90
6379;DHT22;3222;48.858;10.128;2022-12-18T06:15:23;-7.80;99.90
6379;DHT22;3222;48.858;10.128;2022-12-18T06:17:50;-7.80;99.90
6379;DHT22;3222;48.858;10.128;2022-12-18T06:20:15;-7.70;99.90
6379;DHT22;3222;48.858;10.128;2022-12-18T06:22:41;-7.70;99.90
6379;DHT22;3222;48.858;10.128;2022-12-18T06:25:07;-7.70;99.90
6379;DHT22;3222;48.858;10.128;2022-12-18T06:27:33;-7.70;99.90
6379;DHT22;3222;48.858;10.128;2022-12-18T06:29:59;-7.70;99.90
6379;DHT22;3222;48.858;10.128;2022-12-18T06:32:25;-7.70;99.90
6379;DHT22;3222;48.858;10.128;2022-12-18T06:34:51;-7.70;99.90
6379;DHT22;3222;48.858;10.128;2022-12-18T06:37:17;-7.70;99.90
6379;DHT22;3222;48.858;10.128;2022-12-18T06:39:42;-7.70;99.90
6379;DHT22;3222;48.858;10.128;2022-12-18T06:42:08;-7.70;99.90
6379;DHT22;3222;48.858;10.128;2022-12-18T06:44:34;-7.70;99.90
6379;DHT22;3222;48.858;10.128;2022-12-18T06:46:59;-7.60;99.90
6379;DHT22;3222;48.858;10.128;2022-12-18T06:49:25;-7.60;99.90
6379;DHT22;3222;48.858;10.128;2022-12-18T06:51:50;-7.70;99.90
6379;DHT22;3222;48.858;10.128;2022-12-18T06:54:16;-7.70;99.90
6379;DHT22;3222;48.858;10.128;2022-12-18T06:56:42;-7.70;99.90
6379;DHT22;3222;48.858;10.128;2022-12-18T06:59:07;-7.70;99.90
6379;DHT22;3222;48.858;10.128;2022-12-18T07:01:33;-7.60;99.90
6379;DHT22;3222;48.858;10.128;2022-12-18T07:03:58;-7.60;99.90
6379;DHT22;3222;48.858;10.128;2022-12-18T07:06:25;-7.60;99.90
6379;DHT22;3222;48.858;10.128;2022-12-18T07:08:51;-7.60;99.90
6379;DHT22;3222;48.858;10.128;2022-12-18T07:11:18;-7.50;99.90
6379;DHT22;3222;48.858;10.128;2022-12-18T07:13:44;-7.40;99.90
6379;DHT22;3222;48.858;10.128;2022-12-18T07:16:16;-7.30;99.90
6379;DHT22;3222;48.858;10.128;2022-12-18T07:18:43;-7.30;99.90
6379;DHT22;3222;48.858;10.128;2022-12-18T07:21:13;-7.20;99.90
6379;DHT22;3222;48.858;10.128;2022-12-18T07:23:39;-7.20;99.90
6379;DHT22;3222;48.858;10.128;2022-12-18T07:26:07;-7.10;99.90
6379;DHT22;3222;48.858;10.128;2022-12-18T07:28:35;-7.10;99.90
6379;DHT22;3222;48.858;10.128;2022-12-18T07:31:08;-7.00;99.90
6379;DHT22;3222;48.858;10.128;2022-12-18T07:33:35;-7.00;99.90
6379;DHT22;3222;48.858;10.128;2022-12-18T07:36:02;-7.00;99.90
6379;DHT22;3222;48.858;10.128;2022-12-18T07:38:28;-7.00;99.90
6379;DHT22;3222;48.858;10.128;2022-12-18T07:40:54;-7.00;99.90
6379;DHT22;3222;48.858;10.128;2022-12-18T07:43:20;-7.00;99.90
6379;DHT22;3222;48.858;10.128;2022-12-18T07:45:48;-7.00;99.90
6379;DHT22;3222;48.858;10.128;2022-12-18T07:48:14;-7.00;99.90
6379;DHT22;3222;48.858;10.128;2022-12-18T07:50:40;-7.00;99.90
6379;DHT22;3222;48.858;10.128;2022-12-18T07:53:05;-7.00;99.90
6379;DHT22;3222;48.858;10.128;2022-12-18T07:55:31;-7.00;99.90
6379;DHT22;3222;48.858;10.128;2022-12-18T07:58:00;-7.00;99.90
6379;DHT22;3222;48.858;10.128;2022-12-18T08:00:25;-7.00;99.90
6379;DHT22;3222;48.858;10.128;2022-12-18T08:02:51;-7.00;99.90
6379;DHT22;3222;48.858;10.128;2022-12-18T08:05:17;-7.00;99.90
6379;DHT22;3222;48.858;10.128;2022-12-18T08:07:42;-6.90;99.90
6379;DHT22;3222;48.858;10.128;2022-12-18T08:10:08;-6.90;99.90
6379;DHT22;3222;48.858;10.128;2022-12-18T08:12:34;-7.00;99.90
6379;DHT22;3222;48.858;10.128;2022-12-18T08:15:00;-7.00;99.90
6379;DHT22;3222;48.858;10.128;2022-12-18T08:17:25;-7.00;99.90
6379;DHT22;3222;48.858;10.128;2022-12-18T08:19:51;-7.00;99.90
6379;DHT22;3222;48.858;10.128;2022-12-18T08:22:16;-7.00;99.90
6379;DHT22;3222;48.858;10.128;2022-12-18T08:24:42;-6.90;99.90
6379;DHT22;3222;48.858;10.128;2022-12-18T08:27:08;-7.00;99.90
6379;DHT22;3222;48.858;10.128;2022-12-18T08:29:33;-7.00;99.90
6379;DHT22;3222;48.858;10.128;2022-12-18T08:31:59;-6.90;99.90
6379;DHT22;3222;48.858;10.128;2022-12-18T08:34:25;-6.90;99.90
6379;DHT22;3222;48.858;10.128;2022-12-18T08:36:50;-6.80;99.90
6379;DHT22;3222;48.858;10.128;2022-12-18T08:39:16;-6.80;99.90
6379;DHT22;3222;48.858;10.128;2022-12-18T08:41:41;-6.80;99.90
6379;DHT22;3222;48.858;10.128;2022-12-18T08:44:07;-6.80;99.90
6379;DHT22;3222;48.858;10.128;2022-12-18T08:46:52;-6.70;99.90
6379;DHT22;3222;48.858;10.128;2022-12-18T08:49:17;-6.70;99.90
6379;DHT22;3222;48.858;10.128;2022-12-18T08:51:43;-6.70;99.90
6379;DHT22;3222;48.858;10.128;2022-12-18T08:54:11;-6.70;99.90
6379;DHT22;3222;48.858;10.128;2022-12-18T08:56:38;-6.60;99.90
6379;DHT22;3222;48.858;10.128;2022-12-18T08:59:04;-6.60;99.90
6379;DHT22;3222;48.858;10.128;2022-12-18T09:01:29;-6.50;99.90
6379;DHT22;3222;48.858;10.128;2022-12-18T09:03:55;-6.40;99.90
6379;DHT22;3222;48.858;10.128;2022-12-18T09:06:22;-6.40;99.90
6379;DHT22;3222;48.858;10.128;2022-12-18T09:08:48;-6.40;99.90
6379;DHT22;3222;48.858;10.128;2022-12-18T09:11:20;-6.40;99.90
6379;DHT22;3222;48.858;10.128;2022-12-18T09:13:46;-6.40;99.90
6379;DHT22;3222;48.858;10.128;2022-12-18T09:16:12;-6.40;99.90
6379;DHT22;3222;48.858;10.128;2022-12-18T09:18:37;-6.30;99.90
6379;DHT22;3222;48.858;10.128;2022-12-18T09:21:18;-6.30;99.90
6379;DHT22;3222;48.858;10.128;2022-12-18T09:23:48;-6.30;99.90
6379;DHT22;3222;48.858;10.128;2022-12-18T09:26:14;-6.30;99.90
6379;DHT22;3222;48.858;10.128;2022-12-18T09:28:40;-6.30;99.90
6379;DHT22;3222;48.858;10.128;2022-12-18T09:31:07;-6.30;99.90
6379;DHT22;3222;48.858;10.128;2022-12-18T09:33:34;-6.20;99.90
6379;DHT22;3222;48.858;10.128;2022-12-18T09:36:05;-6.20;99.90
6379;DHT22;3222;48.858;10.128;2022-12-18T09:38:31;-6.10;99.90
6379;DHT22;3222;48.858;10.128;2022-12-18T09:43:46;-6.00;99.90
6379;DHT22;3222;48.858;10.128;2022-12-18T09:46:23;-5.90;99.90
6379;DHT22;3222;48.858;10.128;2022-12-18T09:48:52;-5.90;99.90
6379;DHT22;3222;48.858;10.128;2022-12-18T09:51:24;-5.80;99.90
6379;DHT22;3222;48.858;10.128;2022-12-18T09:53:55;-5.80;99.90
6379;DHT22;3222;48.858;10.128;2022-12-18T09:56:22;-5.80;99.90
6379;DHT22;3222;48.858;10.128;2022-12-18T09:58:59;-5.70;99.90
6379;DHT22;3222;48.858;10.128;2022-12-18T10:01:27;-5.70;99.90
6379;DHT22;3222;48.858;10.128;2022-12-18T10:03:53;-5.70;99.90
6379;DHT22;3222;48.858;10.128;2022-12-18T10:06:35;-5.60;99.90
6379;DHT22;3222;48.858;10.128;2022-12-18T10:12:08;-5.60;99.90
6379;DHT22;3222;48.858;10.128;2022-12-18T10:14:50;-5.50;99.90
6379;DHT22;3222;48.858;10.128;2022-12-18T10:17:35;-5.50;99.90
6379;DHT22;3222;48.858;10.128;2022-12-18T10:28:13;-5.30;99.90
6379;DHT22;3222;48.858;10.128;2022-12-18T10:30:41;-5.30;99.90
6379;DHT22;3222;48.858;10.128;2022-12-18T10:33:11;-5.20;99.90
6379;DHT22;3222;48.858;10.128;2022-12-18T10:35:41;-5.10;99.90
6379;DHT22;3222;48.858;10.128;2022-12-18T10:38:21;-5.00;99.90
6379;DHT22;3222;48.858;10.128;2022-12-18T10:43:21;-4.90;99.90
6379;DHT22;3222;48.858;10.128;2022-12-18T10:51:06;-4.70;99.90
6379;DHT22;3222;48.858;10.128;2022-12-18T10:53:34;-4.70;99.90
6379;DHT22;3222;48.858;10.128;2022-12-18T10:56:02;-4.60;99.90
6379;DHT22;3222;48.858;10.128;2022-12-18T10:58:31;-4.60;99.90
6379;DHT22;3222;48.858;10.128;2022-12-18T11:01:11;-4.60;99.90
6379;DHT22;3222;48.858;10.128;2022-12-18T11:06:13;-4.50;99.90
6379;DHT22;3222;48.858;10.128;2022-12-18T11:08:41;-4.40;99.90
6379;DHT22;3222;48.858;10.128;2022-12-18T11:11:19;-4.30;99.90
6379;DHT22;3222;48.858;10.128;2022-12-18T11:16:27;-4.20;99.90
6379;DHT22;3222;48.858;10.128;2022-12-18T11:18:54;-4.20;99.90
6379;DHT22;3222;48.858;10.128;2022-12-18T11:21:20;-4.20;99.90
6379;DHT22;3222;48.858;10.128;2022-12-18T11:23:51;-4.10;99.90
6379;DHT22;3222;48.858;10.128;2022-12-18T11:26:17;-4.10;99.90
6379;DHT22;3222;48.858;10.128;2022-12-18T11:28:52;-4.10;99.90
6379;DHT22;3222;48.858;10.128;2022-12-18T11:31:26;-4.00;99.90
6379;DHT22;3222;48.858;10.128;2022-12-18T11:36:22;-4.10;99.90
6379;DHT22;3222;48.858;10.128;2022-12-18T11:38:49;-4.10;99.90
6379;DHT22;3222;48.858;10.128;2022-12-18T11:41:30;-4.10;99.90
6379;DHT22;3222;48.858;10.128;2022-12-18T11:44:27;-4.10;99.90
6379;DHT22;3222;48.858;10.128;2022-12-18T11:46:59;-4.10;99.90
6379;DHT22;3222;48.858;10.128;2022-12-18T11:49:34;-4.10;99.90
6379;DHT22;3222;48.858;10.128;2022-12-18T11:54:25;-4.20;99.90
6379;DHT22;3222;48.858;10.128;2022-12-18T11:57:09;-4.30;99.90
6379;DHT22;3222;48.858;10.128;2022-12-18T12:02:42;-4.30;99.90
6379;DHT22;3222;48.858;10.128;2022-12-18T12:11:01;-4.10;99.90
6379;DHT22;3222;48.858;10.128;2022-12-18T12:13:36;-4.10;99.90
6379;DHT22;3222;48.858;10.128;2022-12-18T12:22:18;-4.00;99.90
6379;DHT22;3222;48.858;10.128;2022-12-18T12:30:20;-3.90;99.90
6379;DHT22;3222;48.858;10.128;2022-12-18T12:38:52;-4.00;99.90
6379;DHT22;3222;48.858;10.128;2022-12-18T12:41:19;-4.00;99.90
6379;DHT22;3222;48.858;10.128;2022-12-18T12:44:08;-4.00;99.90
6379;DHT22;3222;48.858;10.128;2022-12-18T12:46:38;-4.00;99.90
6379;DHT22;3222;48.858;10.128;2022-12-18T12:49:13;-3.90;99.90
6379;DHT22;3222;48.858;10.128;2022-12-18T12:51:43;-3.90;99.90
6379;DHT22;3222;48.858;10.128;2022-12-18T12:54:21;-3.90;99.90
6379;DHT22;3222;48.858;10.128;2022-12-18T12:57:00;-3.90;99.90
6379;DHT22;3222;48.858;10.128;2022-12-18T13:02:14;-3.90;99.90
6379;DHT22;3222;48.858;10.128;2022-12-18T13:04:52;-4.00;99.90
6379;DHT22;3222;48.858;10.128;2022-12-18T13:07:35;-4.00;99.90
6379;DHT22;3222;48.858;10.128;2022-12-18T13:25:55;-4.00;99.90
6379;DHT22;3222;48.858;10.128;2022-12-18T13:31:11;-4.10;99.90
6379;DHT22;3222;48.858;10.128;2022-12-18T13:33:46;-4.10;99.90
6379;DHT22;3222;48.858;10.128;2022-12-18T13:36:15;-4.10;99.90
6379;DHT22;3222;48.858;10.128;2022-12-18T13:38:43;-4.10;99.90
6379;DHT22;3222;48.858;10.128;2022-12-18T13:43:48;-4.10;99.90
6379;DHT22;3222;48.858;10.128;2022-12-18T13:46:23;-4.20;99.90
6379;DHT22;3222;48.858;10.128;2022-12-18T13:49:05;-4.20;99.90
6379;DHT22;3222;48.858;10.128;2022-12-18T13:51:33;-4.20;99.90
6379;DHT22;3222;48.858;10.128;2022-12-18T13:56:45;-4.20;99.90
6379;DHT22;3222;48.858;10.128;2022-12-18T14:02:09;-4.30;99.90
6379;DHT22;3222;48.858;10.128;2022-12-18T14:04:38;-4.30;99.90
6379;DHT22;3222;48.858;10.128;2022-12-18T14:07:22;-4.30;99.90
6379;DHT22;3222;48.858;10.128;2022-12-18T14:09:59;-4.30;99.90
6379;DHT22;3222;48.858;10.128;2022-12-18T14:12:28;-4.30;99.90
6379;DHT22;3222;48.858;10.128;2022-12-18T14:15:35;-4.30;99.90
6379;DHT22;3222;48.858;10.128;2022-12-18T14:18:09;-4.40;99.90
6379;DHT22;3222;48.858;10.128;2022-12-18T14:20:43;-4.30;99.90
6379;DHT22;3222;48.858;10.128;2022-12-18T14:23:37;-4.30;99.90
6379;DHT22;3222;48.858;10.128;2022-12-18T14:28:44;-4.30;99.90
6379;DHT22;3222;48.858;10.128;2022-12-18T14:31:18;-4.30;99.90
6379;DHT22;3222;48.858;10.128;2022-12-18T14:33:44;-4.30;99.90
6379;DHT22;3222;48.858;10.128;2022-12-18T14:36:17;-4.30;99.90
6379;DHT22;3222;48.858;10.128;2022-12-18T14:38:43;-4.40;99.90
6379;DHT22;3222;48.858;10.128;2022-12-18T14:41:15;-4.40;99.90
6379;DHT22;3222;48.858;10.128;2022-12-18T14:43:43;-4.40;99.90
6379;DHT22;3222;48.858;10.128;2022-12-18T14:48:54;-4.40;99.90
6379;DHT22;3222;48.858;10.128;2022-12-18T14:51:31;-4.30;99.90
6379;DHT22;3222;48.858;10.128;2022-12-18T14:54:03;-4.30;99.90
6379;DHT22;3222;48.858;10.128;2022-12-18T14:56:34;-4.40;99.90
6379;DHT22;3222;48.858;10.128;2022-12-18T14:59:03;-4.40;99.90
6379;DHT22;3222;48.858;10.128;2022-12-18T15:01:33;-4.50;99.90
6379;DHT22;3222;48.858;10.128;2022-12-18T15:04:01;-4.50;99.90
6379;DHT22;3222;48.858;10.128;2022-12-18T15:06:33;-4.50;99.90
6379;DHT22;3222;48.858;10.128;2022-12-18T15:09:02;-4.50;99.90
6379;DHT22;3222;48.858;10.128;2022-12-18T15:11:30;-4.50;99.90
6379;DHT22;3222;48.858;10.128;2022-12-18T15:13:58;-4.50;99.90
6379;DHT22;3222;48.858;10.128;2022-12-18T15:16:24;-4.50;99.90
6379;DHT22;3222;48.858;10.128;2022-12-18T15:18:50;-4.60;99.90
6379;DHT22;3222;48.858;10.128;2022-12-18T15:21:20;-4.60;99.90
6379;DHT22;3222;48.858;10.128;2022-12-18T15:23:50;-4.60;99.90
6379;DHT22;3222;48.858;10.128;2022-12-18T15:26:21;-4.60;99.90
6379;DHT22;3222;48.858;10.128;2022-12-18T15:28:54;-4.60;99.90
6379;DHT22;3222;48.858;10.128;2022-12-18T15:31:24;-4.60;99.90
6379;DHT22;3222;48.858;10.128;2022-12-18T15:36:19;-4.60;99.90
6379;DHT22;3222;48.858;10.128;2022-12-18T15:38:49;-4.60;99.90
6379;DHT22;3222;48.858;10.128;2022-12-18T15:41:17;-4.60;99.90
6379;DHT22;3222;48.858;10.128;2022-12-18T15:43:44;-4.60;99.90
6379;DHT22;3222;48.858;10.128;2022-12-18T15:46:18;-4.70;99.90
6379;DHT22;3222;48.858;10.128;2022-12-18T15:48:47;-4.70;99.90
6379;DHT22;3222;48.858;10.128;2022-12-18T15:51:19;-4.80;99.90
6379;DHT22;3222;48.858;10.128;2022-12-18T15:53:46;-4.80;99.90
6379;DHT22;3222;48.858;10.128;2022-12-18T15:56:14;-4.80;99.90
6379;DHT22;3222;48.858;10.128;2022-12-18T15:58:59;-4.80;99.90
6379;DHT22;3222;48.858;10.128;2022-12-18T16:01:30;-4.90;99.90
6379;DHT22;3222;48.858;10.128;2022-12-18T16:03:57;-4.90;99.90
6379;DHT22;3222;48.858;10.128;2022-12-18T16:06:23;-4.90;99.90
6379;DHT22;3222;48.858;10.128;2022-12-18T16:08:49;-4.90;99.90
6379;DHT22;3222;48.858;10.128;2022-12-18T16:11:27;-4.90;99.90
6379;DHT22;3222;48.858;10.128;2022-12-18T16:14:18;-5.00;99.90
6379;DHT22;3222;48.858;10.128;2022-12-18T16:16:49;-5.00;99.90
6379;DHT22;3222;48.858;10.128;2022-12-18T16:19:15;-5.00;99.90
6379;DHT22;3222;48.858;10.128;2022-12-18T16:21:42;-5.00;99.90
6379;DHT22;3222;48.858;10.128;2022-12-18T16:24:19;-5.00;99.90
6379;DHT22;3222;48.858;10.128;2022-12-18T16:26:48;-5.00;99.90
6379;DHT22;3222;48.858;10.128;2022-12-18T16:29:14;-5.00;99.90
6379;DHT22;3222;48.858;10.128;2022-12-18T16:31:40;-5.00;99.90
6379;DHT22;3222;48.858;10.128;2022-12-18T16:36:58;-5.00;99.90
6379;DHT22;3222;48.858;10.128;2022-12-18T16:39:25;-5.00;99.90
6379;DHT22;3222;48.858;10.128;2022-12-18T16:41:51;-5.10;99.90
6379;DHT22;3222;48.858;10.128;2022-12-18T16:44:17;-5.10;99.90
6379;DHT22;3222;48.858;10.128;2022-12-18T16:46:43;-5.10;99.90
6379;DHT22;3222;48.858;10.128;2022-12-18T16:49:11;-5.10;99.90
6379;DHT22;3222;48.858;10.128;2022-12-18T16:51:38;-5.00;99.90
6379;DHT22;3222;48.858;10.128;2022-12-18T16:54:03;-5.00;99.90
6379;DHT22;3222;48.858;10.128;2022-12-18T16:56:30;-5.00;99.90
6379;DHT22;3222;48.858;10.128;2022-12-18T16:58:58;-5.00;99.90
6379;DHT22;3222;48.858;10.128;2022-12-18T17:01:25;-5.00;99.90
6379;DHT22;3222;48.858;10.128;2022-12-18T17:03:55;-5.00;99.90
6379;DHT22;3222;48.858;10.128;2022-12-18T17:06:22;-5.10;99.90
6379;DHT22;3222;48.858;10.128;2022-12-18T17:08:53;-5.10;99.90
6379;DHT22;3222;48.858;10.128;2022-12-18T17:11:19;-5.10;99.90
6379;DHT22;3222;48.858;10.128;2022-12-18T17:13:44;-5.10;99.90
6379;DHT22;3222;48.858;10.128;2022-12-18T17:16:10;-5.10;99.90
6379;DHT22;3222;48.858;10.128;2022-12-18T17:18:37;-5.10;99.90
6379;DHT22;3222;48.858;10.128;2022-12-18T17:21:04;-5.10;99.90
6379;DHT22;3222;48.858;10.128;2022-12-18T17:23:31;-5.10;99.90
6379;DHT22;3222;48.858;10.128;2022-12-18T17:25:58;-5.10;99.90
6379;DHT22;3222;48.858;10.128;2022-12-18T17:28:25;-5.10;99.90
6379;DHT22;3222;48.858;10.128;2022-12-18T17:30:52;-5.10;99.90
6379;DHT22;3222;48.858;10.128;2022-12-18T17:33:18;-5.10;99.90
6379;DHT22;3222;48.858;10.128;2022-12-18T17:35:44;-5.10;99.90
6379;DHT22;3222;48.858;10.128;2022-12-18T17:38:09;-5.10;99.90
6379;DHT22;3222;48.858;10.128;2022-12-18T17:40:35;-5.10;99.90
6379;DHT22;3222;48.858;10.128;2022-12-18T17:43:01;-5.00;99.90
6379;DHT22;3222;48.858;10.128;2022-12-18T17:45:27;-5.00;99.90
6379;DHT22;3222;48.858;10.128;2022-12-18T17:47:52;-5.00;99.90
6379;DHT22;3222;48.858;10.128;2022-12-18T17:50:18;-5.00;99.90
6379;DHT22;3222;48.858;10.128;2022-12-18T17:52:44;-5.00;99.90
6379;DHT22;3222;48.858;10.128;2022-12-18T17:55:10;-5.00;99.90
6379;DHT22;3222;48.858;10.128;2022-12-18T17:57:35;-5.00;99.90
6379;DHT22;3222;48.858;10.128;2022-12-18T18:00:03;-5.00;99.90
6379;DHT22;3222;48.858;10.128;2022-12-18T18:02:35;-5.00;99.90